createdAt,value
2019-03-13T00:00:16.001Z,95143.98
2019-03-13T00:02:42.003Z,95146.64
2019-03-13T00:05:07.995Z,95141.84
2019-03-13T00:07:33.999Z,95141.84
2019-03-13T00:09:59.992Z,95142.34
2019-03-13T00:12:25.994Z,95148.17
2019-03-13T00:14:51.995Z,95141.13
2019-03-13T00:17:17.992Z,95135.27
2019-03-13T00:19:43.987Z,95136.30
2019-03-13T00:22:10.009Z,95141.22
2019-03-13T00:24:36.010Z,95140.00
2019-03-13T00:27:02.020Z,95143.80
2019-03-13T00:29:28.020Z,95137.13
2019-03-13T00:31:54.015Z,95135.88
2019-03-13T00:34:20.017Z,95131.06
2019-03-13T00:36:46.018Z,95128.09
2019-03-13T00:39:12.022Z,95123.68
2019-03-13T00:41:38.016Z,95116.52
2019-03-13T00:44:04.039Z,95125.43
2019-03-13T00:46:30.040Z,95119.69
2019-03-13T00:48:56.036Z,95124.72
2019-03-13T00:51:22.039Z,95120.72
2019-03-13T00:53:48.036Z,95118.05
2019-03-13T00:56:14.041Z,95113.23
2019-03-13T00:58:40.032Z,95102.57
2019-03-13T01:01:06.051Z,95105.23
2019-03-13T01:03:32.047Z,95106.16
2019-03-13T01:05:58.041Z,95106.27
2019-03-13T01:08:24.044Z,95096.83
2019-03-13T01:10:50.038Z,95103.48
2019-03-13T01:13:16.131Z,95096.94
2019-03-13T01:15:42.124Z,95103.60
2019-03-13T01:18:08.122Z,95104.22
2019-03-13T01:20:34.121Z,95101.44
2019-03-13T01:23:00.144Z,95105.94
2019-03-13T01:25:26.139Z,95102.06
2019-03-13T01:27:52.131Z,95103.80
2019-03-13T01:30:18.132Z,95105.02
2019-03-13T01:32:44.136Z,95103.39
2019-03-13T01:35:10.138Z,95110.05
2019-03-13T01:37:36.130Z,95097.65
2019-03-13T01:40:02.132Z,95101.14
2019-03-13T01:42:28.122Z,95093.77
2019-03-13T01:44:54.123Z,95092.44
2019-03-13T01:47:20.118Z,95090.27
2019-03-13T01:49:46.142Z,95086.16
2019-03-13T01:52:12.136Z,95082.28
2019-03-13T01:54:38.126Z,95090.69
2019-03-13T01:57:04.156Z,95083.70
2019-03-13T01:59:30.146Z,95079.20
2019-03-13T02:01:56.148Z,95081.03
2019-03-13T02:04:22.163Z,95089.44
2019-03-13T02:06:48.154Z,95096.64
2019-03-13T02:09:14.159Z,95096.22
2019-03-13T02:11:40.153Z,95101.55
2019-03-13T02:14:06.152Z,95090.06
2019-03-13T02:16:32.150Z,95084.73
2019-03-13T02:18:58.151Z,95086.06
2019-03-13T02:21:24.147Z,95083.52
2019-03-13T02:23:50.171Z,95087.59
2019-03-13T02:26:16.174Z,95090.27
2019-03-13T02:28:42.167Z,95089.77
2019-03-13T02:31:08.173Z,95095.17
2019-03-13T02:33:34.159Z,95100.63
2019-03-13T02:36:00.164Z,95104.50
2019-03-13T02:38:26.158Z,95109.11
2019-03-13T02:40:52.166Z,95112.61
2019-03-13T02:43:18.153Z,95111.78
2019-03-13T02:45:44.151Z,95109.23
2019-03-13T02:48:10.146Z,95113.61
2019-03-13T02:50:36.177Z,95114.95
2019-03-13T02:53:02.169Z,95110.03
2019-03-13T02:55:28.161Z,95112.28
2019-03-13T02:57:54.161Z,95114.56
2019-03-13T03:00:20.160Z,95115.06
2019-03-13T03:02:46.156Z,95119.14
2019-03-13T03:05:12.149Z,95118.22
2019-03-13T03:07:38.154Z,95111.06
2019-03-13T03:10:04.156Z,95112.59
2019-03-13T03:12:30.161Z,95117.81
2019-03-13T03:14:56.154Z,95116.09
2019-03-13T03:17:22.210Z,95119.26
2019-03-13T03:19:48.196Z,95117.51
2019-03-13T03:22:14.193Z,95124.17
2019-03-13T03:24:40.193Z,95120.67
2019-03-13T03:27:06.194Z,95117.63
2019-03-13T03:29:32.194Z,95111.88
2019-03-13T03:31:58.192Z,95121.20
2019-03-13T03:34:24.197Z,95118.55
2019-03-13T03:36:50.230Z,95112.38
2019-03-13T03:39:16.191Z,95114.63
2019-03-13T03:41:42.196Z,95117.30
2019-03-13T03:44:08.194Z,95121.82
2019-03-13T03:46:34.193Z,95123.16
2019-03-13T03:49:00.190Z,95129.40
2019-03-13T03:51:26.212Z,95130.73
2019-03-13T03:53:52.222Z,95127.66
2019-03-13T03:56:18.218Z,95127.73
2019-03-13T03:58:44.215Z,95128.35
2019-03-13T04:01:10.218Z,95130.02
2019-03-13T04:03:36.222Z,95127.02
2019-03-13T04:06:02.221Z,95125.69
2019-03-13T04:08:28.216Z,95128.77
2019-03-13T04:10:54.225Z,95119.56
2019-03-13T04:13:20.226Z,95118.73
2019-03-13T04:15:46.221Z,95121.28
2019-03-13T04:18:12.231Z,95127.55
2019-03-13T04:20:38.248Z,95137.80
2019-03-13T04:23:04.272Z,95135.22
2019-03-13T04:25:30.270Z,95136.55
2019-03-13T04:27:56.273Z,95131.64
2019-03-13T04:30:22.276Z,95132.25
2019-03-13T04:32:48.266Z,95126.01
2019-03-13T04:35:14.281Z,95132.67
2019-03-13T04:37:40.272Z,95136.66
2019-03-13T04:40:06.271Z,95139.74
2019-03-13T04:42:32.268Z,95142.98
2019-03-13T04:44:58.317Z,95146.60
2019-03-13T04:47:25.149Z,95144.44
2019-03-13T04:49:50.287Z,95143.52
2019-03-13T04:52:16.300Z,95146.60
2019-03-13T04:54:42.297Z,95145.77
2019-03-13T04:57:08.300Z,95138.70
2019-03-13T04:59:34.296Z,95142.27
2019-03-13T05:02:00.320Z,95139.20
2019-03-13T05:04:26.321Z,95144.52
2019-03-13T05:06:52.312Z,95144.94
2019-03-13T05:09:18.318Z,95145.05
2019-03-13T05:11:44.320Z,95136.31
2019-03-13T05:14:10.321Z,95135.31
2019-03-13T05:16:36.318Z,95127.00
2019-03-13T05:19:02.307Z,95129.78
2019-03-13T05:21:28.323Z,95132.14
2019-03-13T05:23:54.334Z,95133.77
2019-03-13T05:26:20.347Z,95132.85
2019-03-13T05:28:46.346Z,95133.35
2019-03-13T05:31:12.348Z,95132.32
2019-03-13T05:33:38.344Z,95138.69
2019-03-13T05:36:04.354Z,95142.67
2019-03-13T05:38:30.344Z,95139.30
2019-03-13T05:40:56.347Z,95145.84
2019-03-13T05:43:22.347Z,95138.05
2019-03-13T05:45:48.449Z,95141.96
2019-03-13T05:48:14.458Z,95144.63
2019-03-13T05:50:40.454Z,95147.70
2019-03-13T05:53:06.463Z,95145.25
2019-03-13T05:55:32.463Z,95145.14
2019-03-13T05:57:58.464Z,95140.84
2019-03-13T06:00:24.478Z,95145.14
2019-03-13T06:02:50.601Z,95146.67
2019-03-13T06:05:16.599Z,95146.60
2019-03-13T06:07:42.602Z,95156.92
2019-03-13T06:10:08.611Z,95162.97
2019-03-13T06:12:34.612Z,95171.38
2019-03-13T06:15:03.430Z,95182.03
2019-03-13T06:17:26.619Z,95181.41
2019-03-13T06:19:52.646Z,95185.39
2019-03-13T06:22:18.619Z,95193.22
2019-03-13T06:24:44.627Z,95192.47
2019-03-13T06:27:10.664Z,95185.80
2019-03-13T06:29:36.670Z,95184.17
2019-03-13T06:32:02.681Z,95189.92
2019-03-13T06:34:28.699Z,95180.27
2019-03-13T06:36:54.717Z,95176.19
2019-03-13T06:39:20.719Z,95173.52
2019-03-13T06:41:46.736Z,95179.98
2019-03-13T06:44:12.808Z,95174.23
2019-03-13T06:46:38.843Z,95174.87
2019-03-13T06:49:04.981Z,95170.26
2019-03-13T06:51:30.981Z,95162.27
2019-03-13T06:53:56.972Z,95169.84
2019-03-13T06:56:22.993Z,95157.85
2019-03-13T06:58:48.996Z,95159.50
2019-03-13T07:01:14.995Z,95158.77
2019-03-13T07:03:40.990Z,95164.02
2019-03-13T07:06:07.004Z,95158.57
2019-03-13T07:08:33.008Z,95168.63
2019-03-13T07:10:59.019Z,95172.82
2019-03-13T07:13:25.017Z,95175.90
2019-03-13T07:15:51.016Z,95178.45
2019-03-13T07:18:17.006Z,95175.06
2019-03-13T07:20:43.010Z,95170.45
2019-03-13T07:23:09.030Z,95174.03
2019-03-13T07:25:35.032Z,95175.90
2019-03-13T07:28:01.041Z,95171.98
2019-03-13T07:30:27.048Z,95167.89
2019-03-13T07:32:56.372Z,95172.08
2019-03-13T07:35:19.049Z,95161.34
2019-03-13T07:37:45.071Z,95159.17
2019-03-13T07:40:11.191Z,95154.67
2019-03-13T07:42:41.265Z,95165.75
2019-03-13T07:45:07.269Z,95161.42
2019-03-13T07:47:33.328Z,95148.63
2019-03-13T07:49:59.548Z,95143.92
2019-03-13T07:52:28.398Z,95142.98
2019-03-13T07:54:54.456Z,95149.75
2019-03-13T07:57:20.452Z,95155.91
2019-03-13T07:59:46.475Z,95158.45
2019-03-13T08:02:12.481Z,95151.80
2019-03-13T08:04:38.499Z,95151.38
2019-03-13T08:07:04.499Z,95148.02
2019-03-13T08:09:30.490Z,95149.44
2019-03-13T08:11:56.498Z,95142.48
2019-03-13T08:14:22.510Z,95140.77
2019-03-13T08:16:48.513Z,95138.53
2019-03-13T08:19:14.522Z,95136.88
2019-03-13T08:21:40.513Z,95133.59
2019-03-13T08:24:06.588Z,95126.00
2019-03-13T08:26:32.597Z,95128.87
2019-03-13T08:28:58.607Z,95128.69
2019-03-13T08:31:24.614Z,95123.14
2019-03-13T08:33:50.615Z,95123.34
2019-03-13T08:36:16.619Z,95116.77
2019-03-13T08:38:42.632Z,95107.46
2019-03-13T08:41:08.629Z,95105.42
2019-03-13T08:43:34.656Z,95107.67
2019-03-13T08:46:00.678Z,95103.06
2019-03-13T08:48:26.693Z,95100.40
2019-03-13T08:50:52.697Z,95102.84
2019-03-13T08:53:18.690Z,95101.31
2019-03-13T08:55:44.895Z,95096.11
2019-03-13T08:58:10.889Z,95094.14
2019-03-13T09:00:36.970Z,95094.55
2019-03-13T09:03:02.915Z,95101.09
2019-03-13T09:05:28.949Z,95094.05
2019-03-13T09:07:54.956Z,95092.61
2019-03-13T09:10:22.680Z,95091.27
2019-03-13T09:12:46.963Z,95087.70
2019-03-13T09:15:12.966Z,95083.79
2019-03-13T09:17:38.976Z,95075.80
2019-03-13T09:20:04.971Z,95080.63
2019-03-13T09:22:31.003Z,95075.40
2019-03-13T09:25:10.846Z,95067.73
2019-03-13T09:27:23.067Z,95067.41
2019-03-13T09:29:49.061Z,95061.37
2019-03-13T09:32:15.081Z,95060.25
2019-03-13T09:34:41.075Z,95059.62
2019-03-13T09:37:07.222Z,95063.73
2019-03-13T09:39:33.216Z,95066.48
2019-03-13T09:41:59.215Z,95067.73
2019-03-13T09:44:25.244Z,95058.48
2019-03-13T09:46:51.215Z,95055.83
2019-03-13T09:49:19.926Z,95054.61
2019-03-13T09:51:45.958Z,95059.83
2019-03-13T09:54:11.993Z,95057.98
2019-03-13T09:56:37.994Z,95058.41
2019-03-13T09:59:03.989Z,95062.60
2019-03-13T10:01:29.992Z,95056.36
2019-03-13T10:03:55.991Z,95064.85
2019-03-13T10:06:22.561Z,95056.36
2019-03-13T10:08:47.992Z,95057.78
2019-03-13T10:11:14.036Z,95053.48
2019-03-13T10:13:40.081Z,95048.66
2019-03-13T10:16:06.100Z,95045.38
2019-03-13T10:18:32.112Z,95049.38
2019-03-13T10:20:58.109Z,95054.61
2019-03-13T10:23:24.119Z,95048.95
2019-03-13T10:25:50.120Z,95053.48
2019-03-13T10:28:16.117Z,95053.57
2019-03-13T10:30:42.122Z,95051.12
2019-03-13T10:33:08.276Z,95043.33
2019-03-13T10:35:34.277Z,95047.74
2019-03-13T10:38:12.895Z,95043.62
2019-03-13T10:40:26.409Z,95038.13
2019-03-13T10:42:52.424Z,95039.34
2019-03-13T10:45:18.446Z,95031.05
2019-03-13T10:47:44.464Z,95033.09
2019-03-13T10:50:10.463Z,95026.52
2019-03-13T10:52:36.460Z,95023.05
2019-03-13T10:55:02.478Z,95021.11
2019-03-13T10:57:28.471Z,95016.91
2019-03-13T10:59:54.474Z,95011.67
2019-03-13T11:02:20.486Z,95007.05
2019-03-13T11:04:46.484Z,95000.39
2019-03-13T11:07:12.483Z,95002.14
2019-03-13T11:09:38.495Z,94990.78
2019-03-13T11:12:04.508Z,94996.11
2019-03-13T11:14:30.503Z,94993.74
2019-03-13T11:16:56.499Z,94981.05
2019-03-13T11:19:22.535Z,94976.42
2019-03-13T11:21:48.524Z,94970.47
2019-03-13T11:24:14.532Z,94974.09
2019-03-13T11:26:40.528Z,94974.17
2019-03-13T11:29:06.707Z,94968.43
2019-03-13T11:31:32.704Z,94974.59
2019-03-13T11:33:58.723Z,94965.77
2019-03-13T11:36:24.737Z,94962.48
2019-03-13T11:38:50.735Z,94953.98
2019-03-13T11:41:16.737Z,94951.33
2019-03-13T11:43:42.747Z,94942.83
2019-03-13T11:46:08.752Z,94951.62
2019-03-13T11:48:34.751Z,94955.44
2019-03-13T11:51:00.759Z,94949.99
2019-03-13T11:53:27.157Z,94948.16
2019-03-13T11:55:53.156Z,94943.62
2019-03-13T11:58:31.398Z,94940.87
2019-03-13T12:00:57.429Z,94934.30
2019-03-13T12:03:23.457Z,94932.59
2019-03-13T12:05:49.470Z,94939.13
2019-03-13T12:08:15.477Z,94931.84
2019-03-13T12:10:41.472Z,94925.93
2019-03-13T12:13:10.353Z,94927.34
2019-03-13T12:15:33.496Z,94931.67
2019-03-13T12:17:59.510Z,94925.81
2019-03-13T12:20:25.509Z,94929.72
2019-03-13T12:22:51.540Z,94927.77
2019-03-13T12:25:17.550Z,94917.73
2019-03-13T12:27:43.549Z,94920.06
2019-03-13T12:30:09.558Z,94929.51
2019-03-13T12:32:35.582Z,94916.48
2019-03-13T12:35:01.621Z,94913.73
2019-03-13T12:37:27.621Z,94921.10
2019-03-13T12:39:53.616Z,94915.86
2019-03-13T12:42:19.616Z,94906.75
2019-03-13T12:44:45.607Z,94910.74
2019-03-13T12:47:11.620Z,94909.91
2019-03-13T12:49:37.624Z,94909.53
2019-03-13T12:52:03.671Z,94910.33
2019-03-13T12:54:29.672Z,94911.16
2019-03-13T12:56:55.671Z,94909.83
2019-03-13T12:59:21.713Z,94917.61
2019-03-13T13:01:47.705Z,94911.28
2019-03-13T13:04:13.705Z,94914.12
2019-03-13T13:06:39.704Z,94914.73
2019-03-13T13:09:05.719Z,94911.36
2019-03-13T13:11:31.731Z,94908.28
2019-03-13T13:13:57.739Z,94914.66
2019-03-13T13:16:23.723Z,94910.03
2019-03-13T13:18:49.736Z,94912.48
2019-03-13T13:21:15.726Z,94906.87
2019-03-13T13:23:41.733Z,94905.53
2019-03-13T13:26:07.807Z,94905.20
2019-03-13T13:28:33.747Z,94912.61
2019-03-13T13:30:59.757Z,94907.16
2019-03-13T13:33:25.752Z,94902.75
2019-03-13T13:35:51.752Z,94894.76
2019-03-13T13:38:17.774Z,94897.75
2019-03-13T13:40:44.003Z,94896.80
2019-03-13T13:43:10.004Z,94893.42
2019-03-13T13:45:36.196Z,94889.84
2019-03-13T13:48:02.195Z,94890.55
2019-03-13T13:50:28.197Z,94892.42
2019-03-13T13:52:54.191Z,94887.48
2019-03-13T13:55:20.188Z,94891.68
2019-03-13T13:57:46.199Z,94881.44
2019-03-13T14:00:12.198Z,94878.69
2019-03-13T14:02:38.201Z,94884.64
2019-03-13T14:05:04.199Z,94884.31
2019-03-13T14:07:30.239Z,94878.77
2019-03-13T14:09:56.258Z,94882.06
2019-03-13T14:12:22.251Z,94882.89
2019-03-13T14:14:48.251Z,94871.41
2019-03-13T14:17:14.263Z,94872.23
2019-03-13T14:19:40.266Z,94869.98
2019-03-13T14:22:06.260Z,94871.11
2019-03-13T14:24:32.261Z,94868.03
2019-03-13T14:26:58.260Z,94873.98
2019-03-13T14:29:24.259Z,94873.56
2019-03-13T14:31:50.265Z,94866.61
2019-03-13T14:34:16.300Z,94866.50
2019-03-13T14:36:42.308Z,94865.78
2019-03-13T14:39:08.320Z,94862.91
2019-03-13T14:41:34.302Z,94869.36
2019-03-13T14:44:00.314Z,94861.38
2019-03-13T14:46:26.318Z,94867.53
2019-03-13T14:48:52.334Z,94867.73
2019-03-13T14:51:18.387Z,94863.74
2019-03-13T14:53:44.331Z,94863.53
2019-03-13T14:56:10.355Z,94856.75
2019-03-13T14:58:36.351Z,94852.26
2019-03-13T15:01:02.347Z,94854.72
2019-03-13T15:03:28.352Z,94855.55
2019-03-13T15:05:54.348Z,94855.42
2019-03-13T15:08:20.348Z,94862.00
2019-03-13T15:10:46.344Z,94855.13
2019-03-13T15:13:12.345Z,94855.42
2019-03-13T15:15:38.348Z,94856.55
2019-03-13T15:18:04.351Z,94862.20
2019-03-13T15:20:30.363Z,94858.09
2019-03-13T15:22:56.359Z,94863.20
2019-03-13T15:25:22.359Z,94858.80
2019-03-13T15:27:48.358Z,94856.87
2019-03-13T15:30:14.358Z,94851.43
2019-03-13T15:32:40.387Z,94848.97
2019-03-13T15:35:06.421Z,94848.77
2019-03-13T15:37:32.414Z,94862.41
2019-03-13T15:39:58.439Z,94862.50
2019-03-13T15:42:24.449Z,94861.45
2019-03-13T15:44:50.445Z,94854.42
2019-03-13T15:47:16.443Z,94856.55
2019-03-13T15:49:42.451Z,94853.09
2019-03-13T15:52:08.460Z,94862.00
2019-03-13T15:54:34.532Z,94858.91
2019-03-13T15:57:00.497Z,94854.50
2019-03-13T15:59:26.509Z,94857.47
2019-03-13T16:01:52.510Z,94854.21
2019-03-13T16:04:18.593Z,94849.69
2019-03-13T16:06:44.690Z,94852.17
2019-03-13T16:09:10.615Z,94858.50
2019-03-13T16:11:36.613Z,94848.47
2019-03-13T16:14:02.618Z,94852.88
2019-03-13T16:16:28.613Z,94860.88
2019-03-13T16:18:54.634Z,94850.84
2019-03-13T16:21:20.614Z,94843.86
2019-03-13T16:23:46.620Z,94848.68
2019-03-13T16:26:12.615Z,94847.26
2019-03-13T16:28:38.621Z,94850.13
2019-03-13T16:31:04.636Z,94849.80
2019-03-13T16:33:30.647Z,94850.13
2019-03-13T16:35:56.718Z,94850.84
2019-03-13T16:38:22.722Z,94850.52
2019-03-13T16:40:48.723Z,94851.84
2019-03-13T16:43:14.719Z,94851.55
2019-03-13T16:45:40.719Z,94848.18
2019-03-13T16:48:06.715Z,94847.47
2019-03-13T16:50:32.712Z,94845.72
2019-03-13T16:52:58.713Z,94845.31
2019-03-13T16:55:24.723Z,94843.47
2019-03-13T16:57:50.727Z,94845.81
2019-03-13T17:00:16.714Z,94850.75
2019-03-13T17:02:42.747Z,94851.67
2019-03-13T17:05:08.752Z,94839.78
2019-03-13T17:07:34.758Z,94850.97
2019-03-13T17:10:00.763Z,94850.97
2019-03-13T17:12:26.778Z,94847.27
2019-03-13T17:14:52.788Z,94847.56
2019-03-13T17:17:18.784Z,94843.06
2019-03-13T17:19:44.790Z,94844.48
2019-03-13T17:22:10.793Z,94848.39
2019-03-13T17:24:36.869Z,94846.14
2019-03-13T17:27:02.873Z,94850.43
2019-03-13T17:29:28.891Z,94843.27
2019-03-13T17:31:54.897Z,94850.84
2019-03-13T17:34:20.963Z,94849.30
2019-03-13T17:36:46.983Z,94851.55
2019-03-13T17:39:12.982Z,94850.02
2019-03-13T17:41:38.980Z,94848.48
2019-03-13T17:44:04.998Z,94852.59
2019-03-13T17:46:31.080Z,94850.13
2019-03-13T17:48:57.079Z,94843.89
2019-03-13T17:51:23.070Z,94847.47
2019-03-13T17:53:49.085Z,94848.39
2019-03-13T17:56:15.085Z,94852.59
2019-03-13T17:58:41.105Z,94855.87
2019-03-13T18:01:07.604Z,94859.34
2019-03-13T18:03:33.604Z,94860.25
2019-03-13T18:06:00.169Z,94862.13
2019-03-13T18:08:26.706Z,94859.34
2019-03-13T18:10:52.728Z,94864.58
2019-03-13T18:13:18.743Z,94860.38
2019-03-13T18:15:44.750Z,94854.13
2019-03-13T18:18:10.744Z,94849.81
2019-03-13T18:20:36.744Z,94854.51
2019-03-13T18:23:02.749Z,94851.47
2019-03-13T18:25:28.780Z,94852.80
2019-03-13T18:27:54.785Z,94846.64
2019-03-13T18:30:20.785Z,94838.73
2019-03-13T18:32:46.788Z,94842.23
2019-03-13T18:35:12.790Z,94851.84
2019-03-13T18:37:38.844Z,94848.69
2019-03-13T18:40:04.835Z,94850.72
2019-03-13T18:42:30.855Z,94851.26
2019-03-13T18:44:56.856Z,94850.34
2019-03-13T18:47:22.927Z,94854.92
2019-03-13T18:49:48.923Z,94845.81
2019-03-13T18:52:14.953Z,94852.59
2019-03-13T18:54:41.003Z,94848.06
2019-03-13T18:57:06.996Z,94853.50
2019-03-13T18:59:33.126Z,94852.97
2019-03-13T19:01:58.995Z,94854.92
2019-03-13T19:04:25.006Z,94862.62
2019-03-13T19:06:51.008Z,94860.45
2019-03-13T19:09:17.016Z,94856.97
2019-03-13T19:11:43.044Z,94857.17
2019-03-13T19:14:09.096Z,94863.20
2019-03-13T19:16:35.272Z,94860.75
2019-03-13T19:19:01.170Z,94860.88
2019-03-13T19:21:27.180Z,94859.33
2019-03-13T19:23:53.172Z,94856.46
2019-03-13T19:26:19.194Z,94861.38
2019-03-13T19:28:45.189Z,94865.28
2019-03-13T19:31:11.190Z,94864.24
2019-03-13T19:33:37.192Z,94865.99
2019-03-13T19:36:03.188Z,94860.16
2019-03-13T19:38:29.194Z,94869.58
2019-03-13T19:40:55.187Z,94869.78
2019-03-13T19:43:21.199Z,94872.23
2019-03-13T19:45:47.201Z,94875.82
2019-03-13T19:48:13.296Z,94869.36
2019-03-13T19:50:41.832Z,94860.66
2019-03-13T19:53:07.832Z,94868.57
2019-03-13T19:55:33.842Z,94868.03
2019-03-13T19:58:04.777Z,94868.66
2019-03-13T20:00:31.738Z,94864.87
2019-03-13T20:03:00.439Z,94864.03
2019-03-13T20:05:23.717Z,94864.45
2019-03-13T20:07:49.809Z,94855.92
2019-03-13T20:10:15.721Z,94864.75
2019-03-13T20:12:41.723Z,94864.66
2019-03-13T20:15:07.721Z,94851.93
2019-03-13T20:17:33.749Z,94848.97
2019-03-13T20:19:59.747Z,94848.76
2019-03-13T20:22:25.744Z,94842.22
2019-03-13T20:24:51.768Z,94837.90
2019-03-13T20:27:17.744Z,94837.61
2019-03-13T20:29:43.744Z,94823.45
2019-03-13T20:32:09.748Z,94827.15
2019-03-13T20:34:35.821Z,94829.61
2019-03-13T20:37:01.871Z,94831.86
2019-03-13T20:39:27.887Z,94837.06
2019-03-13T20:41:54.457Z,94833.19
2019-03-13T20:44:19.887Z,94832.56
2019-03-13T20:46:45.921Z,94839.14
2019-03-13T20:49:11.917Z,94839.73
2019-03-13T20:51:37.916Z,94840.56
2019-03-13T20:54:03.927Z,94841.39
2019-03-13T20:56:29.965Z,94844.47
2019-03-13T20:58:55.960Z,94832.16
2019-03-13T21:01:21.960Z,94843.22
2019-03-13T21:03:48.050Z,94838.31
2019-03-13T21:06:13.965Z,94832.86
2019-03-13T21:08:40.164Z,94835.94
2019-03-13T21:11:06.164Z,94825.08
2019-03-13T21:13:32.192Z,94826.73
2019-03-13T21:15:58.191Z,94826.62
2019-03-13T21:18:24.191Z,94829.40
2019-03-13T21:20:50.194Z,94824.08
2019-03-13T21:23:16.265Z,94818.54
2019-03-13T21:25:42.308Z,94808.80
2019-03-13T21:28:08.305Z,94804.09
2019-03-13T21:30:34.315Z,94803.80
2019-03-13T21:33:00.313Z,94808.59
2019-03-13T21:35:26.309Z,94810.77
2019-03-13T21:37:52.307Z,94816.39
2019-03-13T21:40:18.305Z,94816.39
2019-03-13T21:42:44.323Z,94816.92
2019-03-13T21:45:21.800Z,94817.55
2019-03-13T21:47:36.316Z,94816.59
2019-03-13T21:50:02.553Z,94818.96
2019-03-13T21:52:28.320Z,94817.55
2019-03-13T21:54:54.326Z,94816.92
2019-03-13T21:57:20.317Z,94813.76
2019-03-13T21:59:46.339Z,94811.59
2019-03-13T22:02:12.565Z,94809.97
2019-03-13T22:04:38.332Z,94803.70
2019-03-13T22:07:04.339Z,94810.06
2019-03-13T22:09:30.339Z,94806.19
2019-03-13T22:11:56.338Z,94806.89
2019-03-13T22:14:22.330Z,94803.61
2019-03-13T22:16:48.437Z,94805.86
2019-03-13T22:19:14.352Z,94804.11
2019-03-13T22:21:40.347Z,94804.73
2019-03-13T22:24:06.347Z,94803.41
2019-03-13T22:26:32.342Z,94804.11
2019-03-13T22:28:58.343Z,94802.61
2019-03-13T22:31:24.343Z,94803.52
2019-03-13T22:33:50.367Z,94793.38
2019-03-13T22:36:16.363Z,94794.30
2019-03-13T22:38:42.354Z,94797.08
2019-03-13T22:41:08.368Z,94789.88
2019-03-13T22:43:34.644Z,94789.50
2019-03-13T22:46:00.401Z,94794.92
2019-03-13T22:48:26.394Z,94791.75
2019-03-13T22:50:52.390Z,94793.17
2019-03-13T22:53:18.388Z,94797.88
2019-03-13T22:55:44.390Z,94791.75
2019-03-13T22:58:10.399Z,94792.88
2019-03-13T23:00:36.400Z,94781.30
2019-03-13T23:03:02.436Z,94790.63
2019-03-13T23:05:28.438Z,94798.20
2019-03-13T23:07:54.473Z,94800.16
2019-03-13T23:10:20.432Z,94802.41
2019-03-13T23:12:46.432Z,94801.78
2019-03-13T23:15:12.438Z,94801.99
2019-03-13T23:17:38.451Z,94793.30
2019-03-13T23:20:04.450Z,94792.05
2019-03-13T23:22:30.443Z,94784.39
2019-03-13T23:24:56.469Z,94784.59
2019-03-13T23:27:22.463Z,94782.85
2019-03-13T23:29:48.459Z,94781.94
2019-03-13T23:32:14.461Z,94780.60
2019-03-13T23:34:40.464Z,94773.41
2019-03-13T23:37:06.464Z,94775.66
2019-03-13T23:39:32.467Z,94778.94
2019-03-13T23:41:58.474Z,94773.62
2019-03-13T23:44:24.468Z,94771.38
2019-03-13T23:46:50.488Z,94772.70
2019-03-13T23:49:16.481Z,94771.78
2019-03-13T23:51:42.481Z,94770.87
2019-03-13T23:54:08.485Z,94773.73
2019-03-13T23:56:34.482Z,94772.70
2019-03-13T23:59:00.488Z,94776.81
